sensor_id;sensor_type;location;lat;lon;timestamp;P1;durP1;ratioP1;P2;durP2;ratioP2
43311;SDS011;30041;48.300;16.352;2023-05-07T00:00:14;0.75;;;0.40;;
43311;SDS011;30041;48.300;16.352;2023-05-07T00:02:40;0.65;;;0.35;;
43311;SDS011;30041;48.300;16.352;2023-05-07T00:05:06;1.00;;;0.30;;
43311;SDS011;30041;48.300;16.352;2023-05-07T00:07:32;0.50;;;0.30;;
43311;SDS011;30041;48.300;16.352;2023-05-07T00:09:57;0.93;;;0.43;;
43311;SDS011;30041;48.300;16.352;2023-05-07T00:12:22;0.65;;;0.40;;
43311;SDS011;30041;48.300;16.352;2023-05-07T00:14:48;0.47;;;0.30;;
43311;SDS011;30041;48.300;16.352;2023-05-07T00:17:13;0.40;;;0.40;;
43311;SDS011;30041;48.300;16.352;2023-05-07T00:19:39;1.27;;;0.40;;
43311;SDS011;30041;48.300;16.352;2023-05-07T00:22:05;0.60;;;0.30;;
43311;SDS011;30041;48.300;16.352;2023-05-07T00:24:30;0.95;;;0.40;;
43311;SDS011;30041;48.300;16.352;2023-05-07T00:26:56;0.57;;;0.35;;
43311;SDS011;30041;48.300;16.352;2023-05-07T00:29:21;1.48;;;0.40;;
43311;SDS011;30041;48.300;16.352;2023-05-07T00:31:46;1.08;;;0.30;;
43311;SDS011;30041;48.300;16.352;2023-05-07T00:34:14;0.85;;;0.40;;
43311;SDS011;30041;48.300;16.352;2023-05-07T00:36:39;1.58;;;0.43;;
43311;SDS011;30041;48.300;16.352;2023-05-07T00:39:05;1.27;;;0.40;;
43311;SDS011;30041;48.300;16.352;2023-05-07T00:41:30;0.57;;;0.22;;
43311;SDS011;30041;48.300;16.352;2023-05-07T00:43:56;0.50;;;0.30;;
43311;SDS011;30041;48.300;16.352;2023-05-07T00:46:21;0.63;;;0.20;;
43311;SDS011;30041;48.300;16.352;2023-05-07T00:48:47;0.47;;;0.40;;
43311;SDS011;30041;48.300;16.352;2023-05-07T00:51:13;0.65;;;0.30;;
43311;SDS011;30041;48.300;16.352;2023-05-07T00:53:39;0.50;;;0.30;;
43311;SDS011;30041;48.300;16.352;2023-05-07T00:56:05;0.43;;;0.30;;
43311;SDS011;30041;48.300;16.352;2023-05-07T00:58:31;0.75;;;0.32;;
43311;SDS011;30041;48.300;16.352;2023-05-07T01:00:57;0.45;;;0.30;;
43311;SDS011;30041;48.300;16.352;2023-05-07T01:03:23;0.52;;;0.30;;
43311;SDS011;30041;48.300;16.352;2023-05-07T01:05:48;0.70;;;0.30;;
43311;SDS011;30041;48.300;16.352;2023-05-07T01:08:15;0.32;;;0.25;;
43311;SDS011;30041;48.300;16.352;2023-05-07T01:10:41;0.52;;;0.30;;
43311;SDS011;30041;48.300;16.352;2023-05-07T01:13:07;1.05;;;0.40;;
43311;SDS011;30041;48.300;16.352;2023-05-07T01:15:34;0.80;;;0.40;;
43311;SDS011;30041;48.300;16.352;2023-05-07T01:17:59;0.45;;;0.30;;
43311;SDS011;30041;48.300;16.352;2023-05-07T01:20:25;2.28;;;0.47;;
43311;SDS011;30041;48.300;16.352;2023-05-07T01:22:51;0.52;;;0.20;;
43311;SDS011;30041;48.300;16.352;2023-05-07T01:25:17;0.47;;;0.20;;
43311;SDS011;30041;48.300;16.352;2023-05-07T01:27:43;0.73;;;0.30;;
43311;SDS011;30041;48.300;16.352;2023-05-07T01:30:09;1.27;;;0.28;;
43311;SDS011;30041;48.300;16.352;2023-05-07T01:32:40;0.52;;;0.20;;
43311;SDS011;30041;48.300;16.352;2023-05-07T01:35:12;0.32;;;0.20;;
43311;SDS011;30041;48.300;16.352;2023-05-07T01:37:55;0.40;;;0.20;;
43311;SDS011;30041;48.300;16.352;2023-05-07T01:40:21;0.20;;;0.10;;
43311;SDS011;30041;48.300;16.352;2023-05-07T01:42:48;1.23;;;0.40;;
43311;SDS011;30041;48.300;16.352;2023-05-07T01:45:14;0.40;;;0.20;;
43311;SDS011;30041;48.300;16.352;2023-05-07T01:47:39;0.20;;;0.20;;
43311;SDS011;30041;48.300;16.352;2023-05-07T01:50:05;0.40;;;0.30;;
43311;SDS011;30041;48.300;16.352;2023-05-07T01:52:32;0.20;;;0.20;;
43311;SDS011;30041;48.300;16.352;2023-05-07T01:54:57;0.40;;;0.30;;
43311;SDS011;30041;48.300;16.352;2023-05-07T01:57:23;0.75;;;0.20;;
43311;SDS011;30041;48.300;16.352;2023-05-07T01:59:48;0.50;;;0.20;;
43311;SDS011;30041;48.300;16.352;2023-05-07T02:02:14;0.45;;;0.20;;
43311;SDS011;30041;48.300;16.352;2023-05-07T02:04:39;0.73;;;0.30;;
43311;SDS011;30041;48.300;16.352;2023-05-07T02:07:04;0.25;;;0.15;;
43311;SDS011;30041;48.300;16.352;2023-05-07T02:09:30;0.40;;;0.30;;
43311;SDS011;30041;48.300;16.352;2023-05-07T02:11:56;0.40;;;0.20;;
43311;SDS011;30041;48.300;16.352;2023-05-07T02:14:21;0.55;;;0.20;;
43311;SDS011;30041;48.300;16.352;2023-05-07T02:16:47;0.40;;;0.10;;
43311;SDS011;30041;48.300;16.352;2023-05-07T02:19:12;0.10;;;0.10;;
43311;SDS011;30041;48.300;16.352;2023-05-07T02:21:37;0.25;;;0.20;;
43311;SDS011;30041;48.300;16.352;2023-05-07T02:24:03;0.10;;;0.10;;
43311;SDS011;30041;48.300;16.352;2023-05-07T02:26:29;0.90;;;0.20;;
43311;SDS011;30041;48.300;16.352;2023-05-07T02:28:54;0.57;;;0.20;;
43311;SDS011;30041;48.300;16.352;2023-05-07T02:31:19;0.25;;;0.10;;
43311;SDS011;30041;48.300;16.352;2023-05-07T02:33:45;0.55;;;0.25;;
43311;SDS011;30041;48.300;16.352;2023-05-07T02:36:11;0.25;;;0.17;;
43311;SDS011;30041;48.300;16.352;2023-05-07T02:38:37;0.38;;;0.20;;
43311;SDS011;30041;48.300;16.352;2023-05-07T02:41:03;0.98;;;0.25;;
43311;SDS011;30041;48.300;16.352;2023-05-07T02:43:29;0.17;;;0.17;;
43311;SDS011;30041;48.300;16.352;2023-05-07T02:46:04;0.47;;;0.30;;
43311;SDS011;30041;48.300;16.352;2023-05-07T02:48:31;0.52;;;0.20;;
43311;SDS011;30041;48.300;16.352;2023-05-07T02:50:57;0.25;;;0.20;;
43311;SDS011;30041;48.300;16.352;2023-05-07T02:53:24;0.10;;;0.10;;
43311;SDS011;30041;48.300;16.352;2023-05-07T02:55:49;0.30;;;0.10;;
43311;SDS011;30041;48.300;16.352;2023-05-07T02:58:15;0.32;;;0.13;;
43311;SDS011;30041;48.300;16.352;2023-05-07T03:00:40;0.47;;;0.15;;
43311;SDS011;30041;48.300;16.352;2023-05-07T03:03:06;0.10;;;0.10;;
43311;SDS011;30041;48.300;16.352;2023-05-07T03:05:31;0.52;;;0.30;;
43311;SDS011;30041;48.300;16.352;2023-05-07T03:07:57;0.28;;;0.20;;
43311;SDS011;30041;48.300;16.352;2023-05-07T03:10:22;0.40;;;0.20;;
43311;SDS011;30041;48.300;16.352;2023-05-07T03:12:47;0.08;;;0.08;;
43311;SDS011;30041;48.300;16.352;2023-05-07T03:15:13;0.35;;;0.20;;
43311;SDS011;30041;48.300;16.352;2023-05-07T03:17:38;0.20;;;0.20;;
43311;SDS011;30041;48.300;16.352;2023-05-07T03:20:04;0.10;;;0.10;;
43311;SDS011;30041;48.300;16.352;2023-05-07T03:22:30;0.32;;;0.10;;
43311;SDS011;30041;48.300;16.352;2023-05-07T03:24:56;0.05;;;0.05;;
43311;SDS011;30041;48.300;16.352;2023-05-07T03:27:21;0.10;;;0.10;;
43311;SDS011;30041;48.300;16.352;2023-05-07T03:29:47;0.20;;;0.10;;
43311;SDS011;30041;48.300;16.352;2023-05-07T03:32:12;0.25;;;0.20;;
43311;SDS011;30041;48.300;16.352;2023-05-07T03:34:38;0.30;;;0.10;;
43311;SDS011;30041;48.300;16.352;2023-05-07T03:37:03;0.30;;;0.20;;
43311;SDS011;30041;48.300;16.352;2023-05-07T03:39:29;0.43;;;0.20;;
43311;SDS011;30041;48.300;16.352;2023-05-07T03:41:54;0.00;;;0.00;;
43311;SDS011;30041;48.300;16.352;2023-05-07T03:44:20;0.20;;;0.10;;
43311;SDS011;30041;48.300;16.352;2023-05-07T03:46:45;0.10;;;0.00;;
43311;SDS011;30041;48.300;16.352;2023-05-07T03:49:11;0.30;;;0.10;;
43311;SDS011;30041;48.300;16.352;2023-05-07T03:51:36;0.32;;;0.10;;
43311;SDS011;30041;48.300;16.352;2023-05-07T03:54:02;0.10;;;0.10;;
43311;SDS011;30041;48.300;16.352;2023-05-07T03:56:27;0.20;;;0.10;;
43311;SDS011;30041;48.300;16.352;2023-05-07T03:58:53;0.32;;;0.20;;
43311;SDS011;30041;48.300;16.352;2023-05-07T04:01:19;0.28;;;0.10;;
43311;SDS011;30041;48.300;16.352;2023-05-07T04:03:44;0.22;;;0.13;;
43311;SDS011;30041;48.300;16.352;2023-05-07T04:06:10;0.30;;;0.20;;
43311;SDS011;30041;48.300;16.352;2023-05-07T04:08:35;0.10;;;0.10;;
43311;SDS011;30041;48.300;16.352;2023-05-07T04:11:00;0.10;;;0.10;;
43311;SDS011;30041;48.300;16.352;2023-05-07T04:13:26;0.10;;;0.05;;
43311;SDS011;30041;48.300;16.352;2023-05-07T04:15:52;0.13;;;0.10;;
43311;SDS011;30041;48.300;16.352;2023-05-07T04:18:19;0.17;;;0.17;;
43311;SDS011;30041;48.300;16.352;2023-05-07T04:20:45;0.20;;;0.10;;
43311;SDS011;30041;48.300;16.352;2023-05-07T04:23:10;0.17;;;0.10;;
43311;SDS011;30041;48.300;16.352;2023-05-07T04:25:36;0.30;;;0.20;;
43311;SDS011;30041;48.300;16.352;2023-05-07T04:28:01;0.10;;;0.10;;
43311;SDS011;30041;48.300;16.352;2023-05-07T04:30:27;0.05;;;0.05;;
43311;SDS011;30041;48.300;16.352;2023-05-07T04:32:52;0.20;;;0.10;;
43311;SDS011;30041;48.300;16.352;2023-05-07T04:35:18;0.17;;;0.10;;
43311;SDS011;30041;48.300;16.352;2023-05-07T04:37:43;0.10;;;0.00;;
43311;SDS011;30041;48.300;16.352;2023-05-07T04:40:09;0.10;;;0.10;;
43311;SDS011;30041;48.300;16.352;2023-05-07T04:42:34;0.10;;;0.10;;
43311;SDS011;30041;48.300;16.352;2023-05-07T04:45:00;0.20;;;0.10;;
43311;SDS011;30041;48.300;16.352;2023-05-07T04:47:26;0.20;;;0.10;;
43311;SDS011;30041;48.300;16.352;2023-05-07T04:49:51;0.20;;;0.10;;
43311;SDS011;30041;48.300;16.352;2023-05-07T04:52:17;0.10;;;0.10;;
43311;SDS011;30041;48.300;16.352;2023-05-07T04:54:42;0.38;;;0.10;;
43311;SDS011;30041;48.300;16.352;2023-05-07T04:57:08;0.10;;;0.10;;
43311;SDS011;30041;48.300;16.352;2023-05-07T04:59:33;0.20;;;0.13;;
43311;SDS011;30041;48.300;16.352;2023-05-07T05:01:59;0.08;;;0.05;;
43311;SDS011;30041;48.300;16.352;2023-05-07T05:04:24;0.00;;;0.00;;
43311;SDS011;30041;48.300;16.352;2023-05-07T05:06:50;0.03;;;0.00;;
43311;SDS011;30041;48.300;16.352;2023-05-07T05:09:15;0.13;;;0.10;;
43311;SDS011;30041;48.300;16.352;2023-05-07T05:11:41;0.30;;;0.00;;
43311;SDS011;30041;48.300;16.352;2023-05-07T05:14:07;0.10;;;0.10;;
43311;SDS011;30041;48.300;16.352;2023-05-07T05:16:32;0.00;;;0.00;;
43311;SDS011;30041;48.300;16.352;2023-05-07T05:18:58;0.00;;;0.00;;
43311;SDS011;30041;48.300;16.352;2023-05-07T05:21:23;0.05;;;0.00;;
43311;SDS011;30041;48.300;16.352;2023-05-07T05:23:49;0.00;;;0.00;;
43311;SDS011;30041;48.300;16.352;2023-05-07T05:26:14;0.00;;;0.00;;
43311;SDS011;30041;48.300;16.352;2023-05-07T05:28:40;0.00;;;0.00;;
43311;SDS011;30041;48.300;16.352;2023-05-07T05:31:05;0.10;;;0.10;;
43311;SDS011;30041;48.300;16.352;2023-05-07T05:33:31;0.10;;;0.00;;
43311;SDS011;30041;48.300;16.352;2023-05-07T05:35:56;0.00;;;0.00;;
43311;SDS011;30041;48.300;16.352;2023-05-07T05:38:22;0.28;;;0.10;;
43311;SDS011;30041;48.300;16.352;2023-05-07T05:40:47;0.00;;;0.00;;
43311;SDS011;30041;48.300;16.352;2023-05-07T05:43:13;0.17;;;0.00;;
43311;SDS011;30041;48.300;16.352;2023-05-07T05:45:39;0.00;;;0.00;;
43311;SDS011;30041;48.300;16.352;2023-05-07T05:48:04;0.00;;;0.00;;
43311;SDS011;30041;48.300;16.352;2023-05-07T05:50:30;0.00;;;0.00;;
43311;SDS011;30041;48.300;16.352;2023-05-07T05:52:55;0.00;;;0.00;;
43311;SDS011;30041;48.300;16.352;2023-05-07T05:55:21;0.00;;;0.00;;
43311;SDS011;30041;48.300;16.352;2023-05-07T05:57:46;0.00;;;0.00;;
43311;SDS011;30041;48.300;16.352;2023-05-07T06:00:12;0.00;;;0.00;;
43311;SDS011;30041;48.300;16.352;2023-05-07T06:02:38;0.00;;;0.00;;
43311;SDS011;30041;48.300;16.352;2023-05-07T06:05:03;0.00;;;0.00;;
43311;SDS011;30041;48.300;16.352;2023-05-07T06:07:29;0.10;;;0.00;;
43311;SDS011;30041;48.300;16.352;2023-05-07T06:09:54;0.00;;;0.00;;
43311;SDS011;30041;48.300;16.352;2023-05-07T06:12:20;0.00;;;0.00;;
43311;SDS011;30041;48.300;16.352;2023-05-07T06:14:46;1.25;;;0.60;;
43311;SDS011;30041;48.300;16.352;2023-05-07T06:17:11;3.88;;;1.00;;
43311;SDS011;30041;48.300;16.352;2023-05-07T06:19:37;5.45;;;1.15;;
43311;SDS011;30041;48.300;16.352;2023-05-07T06:22:02;1.35;;;0.93;;
43311;SDS011;30041;48.300;16.352;2023-05-07T06:24:28;3.03;;;0.90;;
43311;SDS011;30041;48.300;16.352;2023-05-07T06:26:54;3.85;;;1.30;;
43311;SDS011;30041;48.300;16.352;2023-05-07T06:29:19;3.60;;;1.38;;
43311;SDS011;30041;48.300;16.352;2023-05-07T06:31:45;6.88;;;1.05;;
43311;SDS011;30041;48.300;16.352;2023-05-07T06:34:10;3.35;;;1.00;;
43311;SDS011;30041;48.300;16.352;2023-05-07T06:36:36;2.45;;;1.45;;
43311;SDS011;30041;48.300;16.352;2023-05-07T06:39:01;4.00;;;1.30;;
43311;SDS011;30041;48.300;16.352;2023-05-07T06:41:27;5.18;;;1.23;;
43311;SDS011;30041;48.300;16.352;2023-05-07T06:43:52;6.45;;;1.30;;
43311;SDS011;30041;48.300;16.352;2023-05-07T06:46:17;2.78;;;1.10;;
43311;SDS011;30041;48.300;16.352;2023-05-07T06:48:43;4.53;;;1.10;;
43311;SDS011;30041;48.300;16.352;2023-05-07T06:51:08;5.72;;;1.35;;
43311;SDS011;30041;48.300;16.352;2023-05-07T06:53:34;2.42;;;1.20;;
43311;SDS011;30041;48.300;16.352;2023-05-07T06:56:00;5.05;;;1.33;;
43311;SDS011;30041;48.300;16.352;2023-05-07T06:58:25;3.65;;;1.42;;
43311;SDS011;30041;48.300;16.352;2023-05-07T07:00:51;7.43;;;1.98;;
43311;SDS011;30041;48.300;16.352;2023-05-07T07:03:16;7.43;;;2.63;;
43311;SDS011;30041;48.300;16.352;2023-05-07T07:05:42;5.57;;;3.90;;
43311;SDS011;30041;48.300;16.352;2023-05-07T07:08:07;7.55;;;5.65;;
43311;SDS011;30041;48.300;16.352;2023-05-07T07:10:33;8.05;;;5.72;;
43311;SDS011;30041;48.300;16.352;2023-05-07T07:12:58;8.18;;;6.32;;
43311;SDS011;30041;48.300;16.352;2023-05-07T07:15:24;7.22;;;6.18;;
43311;SDS011;30041;48.300;16.352;2023-05-07T07:17:49;9.95;;;6.78;;
43311;SDS011;30041;48.300;16.352;2023-05-07T07:20:15;8.85;;;6.22;;
43311;SDS011;30041;48.300;16.352;2023-05-07T07:22:41;9.52;;;6.75;;
43311;SDS011;30041;48.300;16.352;2023-05-07T07:25:07;10.40;;;7.20;;
43311;SDS011;30041;48.300;16.352;2023-05-07T07:27:32;9.88;;;7.72;;
43311;SDS011;30041;48.300;16.352;2023-05-07T07:29:58;8.68;;;7.40;;
43311;SDS011;30041;48.300;16.352;2023-05-07T07:32:23;10.32;;;7.53;;
43311;SDS011;30041;48.300;16.352;2023-05-07T07:34:49;8.55;;;7.65;;
43311;SDS011;30041;48.300;16.352;2023-05-07T07:37:14;10.68;;;6.88;;
43311;SDS011;30041;48.300;16.352;2023-05-07T07:39:40;6.55;;;5.28;;
43311;SDS011;30041;48.300;16.352;2023-05-07T07:42:05;7.78;;;4.85;;
43311;SDS011;30041;48.300;16.352;2023-05-07T07:44:31;14.27;;;4.43;;
43311;SDS011;30041;48.300;16.352;2023-05-07T07:46:56;9.18;;;4.35;;
43311;SDS011;30041;48.300;16.352;2023-05-07T07:49:22;8.00;;;4.20;;
43311;SDS011;30041;48.300;16.352;2023-05-07T07:51:47;7.13;;;3.33;;
43311;SDS011;30041;48.300;16.352;2023-05-07T07:54:12;6.22;;;3.70;;
43311;SDS011;30041;48.300;16.352;2023-05-07T07:56:38;6.18;;;3.47;;
43311;SDS011;30041;48.300;16.352;2023-05-07T07:59:03;8.98;;;3.60;;
43311;SDS011;30041;48.300;16.352;2023-05-07T08:01:29;7.05;;;3.42;;
43311;SDS011;30041;48.300;16.352;2023-05-07T08:03:55;6.30;;;3.22;;
43311;SDS011;30041;48.300;16.352;2023-05-07T08:06:21;7.80;;;3.25;;
43311;SDS011;30041;48.300;16.352;2023-05-07T08:08:46;6.43;;;3.30;;
43311;SDS011;30041;48.300;16.352;2023-05-07T08:11:11;6.00;;;3.13;;
43311;SDS011;30041;48.300;16.352;2023-05-07T08:13:37;5.55;;;3.47;;
43311;SDS011;30041;48.300;16.352;2023-05-07T08:16:03;6.60;;;3.38;;
43311;SDS011;30041;48.300;16.352;2023-05-07T08:18:29;6.55;;;3.47;;
43311;SDS011;30041;48.300;16.352;2023-05-07T08:20:55;6.68;;;3.33;;
43311;SDS011;30041;48.300;16.352;2023-05-07T08:23:21;6.15;;;3.17;;
43311;SDS011;30041;48.300;16.352;2023-05-07T08:25:46;17.05;;;5.82;;
43311;SDS011;30041;48.300;16.352;2023-05-07T08:28:12;7.22;;;4.32;;
43311;SDS011;30041;48.300;16.352;2023-05-07T08:30:37;8.88;;;3.92;;
43311;SDS011;30041;48.300;16.352;2023-05-07T08:33:03;15.50;;;4.15;;
43311;SDS011;30041;48.300;16.352;2023-05-07T08:35:28;6.75;;;3.63;;
43311;SDS011;30041;48.300;16.352;2023-05-07T08:37:54;6.15;;;3.63;;
43311;SDS011;30041;48.300;16.352;2023-05-07T08:40:20;7.70;;;3.55;;
43311;SDS011;30041;48.300;16.352;2023-05-07T08:42:49;11.25;;;3.90;;
43311;SDS011;30041;48.300;16.352;2023-05-07T08:45:17;5.68;;;3.50;;
43311;SDS011;30041;48.300;16.352;2023-05-07T08:47:45;9.82;;;3.92;;
43311;SDS011;30041;48.300;16.352;2023-05-07T08:50:15;10.23;;;3.70;;
43311;SDS011;30041;48.300;16.352;2023-05-07T08:52:41;8.82;;;3.30;;
43311;SDS011;30041;48.300;16.352;2023-05-07T08:55:07;6.35;;;3.35;;
43311;SDS011;30041;48.300;16.352;2023-05-07T08:57:33;7.13;;;3.22;;
43311;SDS011;30041;48.300;16.352;2023-05-07T08:59:59;4.65;;;3.20;;
43311;SDS011;30041;48.300;16.352;2023-05-07T09:02:24;7.63;;;3.28;;
43311;SDS011;30041;48.300;16.352;2023-05-07T09:04:50;6.18;;;3.17;;
43311;SDS011;30041;48.300;16.352;2023-05-07T09:07:15;9.18;;;3.40;;
43311;SDS011;30041;48.300;16.352;2023-05-07T09:09:41;8.77;;;3.83;;
43311;SDS011;30041;48.300;16.352;2023-05-07T09:12:08;5.93;;;3.17;;
43311;SDS011;30041;48.300;16.352;2023-05-07T09:14:34;6.30;;;3.10;;
43311;SDS011;30041;48.300;16.352;2023-05-07T09:16:59;7.07;;;3.45;;
43311;SDS011;30041;48.300;16.352;2023-05-07T09:19:25;5.68;;;3.25;;
43311;SDS011;30041;48.300;16.352;2023-05-07T09:21:58;6.82;;;3.28;;
43311;SDS011;30041;48.300;16.352;2023-05-07T09:24:27;5.75;;;3.10;;
43311;SDS011;30041;48.300;16.352;2023-05-07T09:26:53;6.65;;;3.10;;
43311;SDS011;30041;48.300;16.352;2023-05-07T09:29:18;9.23;;;3.22;;
43311;SDS011;30041;48.300;16.352;2023-05-07T09:31:43;8.45;;;3.10;;
43311;SDS011;30041;48.300;16.352;2023-05-07T09:34:10;5.78;;;3.40;;
43311;SDS011;30041;48.300;16.352;2023-05-07T09:36:35;6.57;;;3.38;;
43311;SDS011;30041;48.300;16.352;2023-05-07T09:39:01;7.45;;;3.65;;
43311;SDS011;30041;48.300;16.352;2023-05-07T09:41:26;5.03;;;3.20;;
43311;SDS011;30041;48.300;16.352;2023-05-07T09:43:55;6.32;;;3.17;;
43311;SDS011;30041;48.300;16.352;2023-05-07T09:46:21;6.45;;;3.58;;
43311;SDS011;30041;48.300;16.352;2023-05-07T09:48:52;12.38;;;4.68;;
43311;SDS011;30041;48.300;16.352;2023-05-07T09:53:53;9.95;;;4.85;;
43311;SDS011;30041;48.300;16.352;2023-05-07T09:56:19;7.30;;;3.80;;
43311;SDS011;30041;48.300;16.352;2023-05-07T09:58:45;5.90;;;3.53;;
43311;SDS011;30041;48.300;16.352;2023-05-07T10:01:12;8.43;;;3.67;;
43311;SDS011;30041;48.300;16.352;2023-05-07T10:03:39;7.25;;;3.40;;
43311;SDS011;30041;48.300;16.352;2023-05-07T10:06:06;5.78;;;3.22;;
43311;SDS011;30041;48.300;16.352;2023-05-07T10:08:34;8.25;;;3.28;;
43311;SDS011;30041;48.300;16.352;2023-05-07T10:11:00;8.55;;;3.70;;
43311;SDS011;30041;48.300;16.352;2023-05-07T10:13:27;6.97;;;3.40;;
43311;SDS011;30041;48.300;16.352;2023-05-07T10:15:53;5.22;;;3.25;;
43311;SDS011;30041;48.300;16.352;2023-05-07T10:18:20;5.90;;;2.85;;
43311;SDS011;30041;48.300;16.352;2023-05-07T10:20:47;6.47;;;3.30;;
43311;SDS011;30041;48.300;16.352;2023-05-07T10:23:13;5.32;;;3.20;;
43311;SDS011;30041;48.300;16.352;2023-05-07T10:25:41;5.70;;;3.10;;
43311;SDS011;30041;48.300;16.352;2023-05-07T10:28:07;5.88;;;3.22;;
43311;SDS011;30041;48.300;16.352;2023-05-07T10:30:43;5.38;;;3.00;;
43311;SDS011;30041;48.300;16.352;2023-05-07T10:33:32;4.30;;;3.15;;
43311;SDS011;30041;48.300;16.352;2023-05-07T10:36:00;5.65;;;3.35;;
43311;SDS011;30041;48.300;16.352;2023-05-07T10:38:27;6.55;;;3.35;;
43311;SDS011;30041;48.300;16.352;2023-05-07T10:40:53;6.18;;;3.08;;
43311;SDS011;30041;48.300;16.352;2023-05-07T10:43:18;5.97;;;2.72;;
43311;SDS011;30041;48.300;16.352;2023-05-07T10:45:49;3.90;;;2.70;;
43311;SDS011;30041;48.300;16.352;2023-05-07T10:48:37;4.72;;;2.90;;
43311;SDS011;30041;48.300;16.352;2023-05-07T10:51:26;4.28;;;2.83;;
43311;SDS011;30041;48.300;16.352;2023-05-07T10:56:43;6.75;;;3.03;;
43311;SDS011;30041;48.300;16.352;2023-05-07T11:01:50;5.47;;;2.97;;
43311;SDS011;30041;48.300;16.352;2023-05-07T11:04:19;4.50;;;3.05;;
43311;SDS011;30041;48.300;16.352;2023-05-07T11:09:53;4.78;;;2.92;;
43311;SDS011;30041;48.300;16.352;2023-05-07T11:15:04;3.72;;;2.75;;
43311;SDS011;30041;48.300;16.352;2023-05-07T11:17:32;3.47;;;2.50;;
43311;SDS011;30041;48.300;16.352;2023-05-07T11:19:58;3.65;;;2.45;;
43311;SDS011;30041;48.300;16.352;2023-05-07T11:25:02;5.72;;;2.90;;
43311;SDS011;30041;48.300;16.352;2023-05-07T11:27:29;3.95;;;2.72;;
43311;SDS011;30041;48.300;16.352;2023-05-07T11:29:54;5.53;;;2.72;;
43311;SDS011;30041;48.300;16.352;2023-05-07T11:32:24;4.13;;;2.60;;
43311;SDS011;30041;48.300;16.352;2023-05-07T11:34:51;5.15;;;2.67;;
43311;SDS011;30041;48.300;16.352;2023-05-07T11:37:21;3.85;;;2.53;;
43311;SDS011;30041;48.300;16.352;2023-05-07T11:39:47;3.47;;;2.78;;
43311;SDS011;30041;48.300;16.352;2023-05-07T11:42:27;4.10;;;2.35;;
43311;SDS011;30041;48.300;16.352;2023-05-07T11:44:54;4.32;;;2.90;;
43311;SDS011;30041;48.300;16.352;2023-05-07T11:47:20;4.03;;;2.53;;
43311;SDS011;30041;48.300;16.352;2023-05-07T11:49:49;4.00;;;2.80;;
43311;SDS011;30041;48.300;16.352;2023-05-07T11:52:16;3.70;;;2.70;;
43311;SDS011;30041;48.300;16.352;2023-05-07T11:54:52;4.15;;;2.38;;
43311;SDS011;30041;48.300;16.352;2023-05-07T11:57:19;3.08;;;2.58;;
43311;SDS011;30041;48.300;16.352;2023-05-07T11:59:44;3.83;;;2.80;;
43311;SDS011;30041;48.300;16.352;2023-05-07T12:02:10;5.40;;;2.83;;
43311;SDS011;30041;48.300;16.352;2023-05-07T12:04:35;2.97;;;2.50;;
43311;SDS011;30041;48.300;16.352;2023-05-07T12:07:02;3.15;;;2.60;;
43311;SDS011;30041;48.300;16.352;2023-05-07T12:09:28;4.22;;;2.70;;
43311;SDS011;30041;48.300;16.352;2023-05-07T12:11:53;3.63;;;2.50;;
43311;SDS011;30041;48.300;16.352;2023-05-07T12:14:19;3.72;;;2.40;;
43311;SDS011;30041;48.300;16.352;2023-05-07T12:16:44;3.85;;;2.80;;
43311;SDS011;30041;48.300;16.352;2023-05-07T12:19:11;3.35;;;2.40;;
43311;SDS011;30041;48.300;16.352;2023-05-07T12:21:37;3.28;;;2.20;;
43311;SDS011;30041;48.300;16.352;2023-05-07T12:24:03;3.30;;;2.60;;
43311;SDS011;30041;48.300;16.352;2023-05-07T12:26:29;3.67;;;2.47;;
43311;SDS011;30041;48.300;16.352;2023-05-07T12:28:56;3.80;;;2.28;;
43311;SDS011;30041;48.300;16.352;2023-05-07T12:31:22;3.10;;;2.33;;
43311;SDS011;30041;48.300;16.352;2023-05-07T12:33:50;3.42;;;2.58;;
43311;SDS011;30041;48.300;16.352;2023-05-07T12:36:16;4.03;;;2.60;;
43311;SDS011;30041;48.300;16.352;2023-05-07T12:38:41;8.02;;;3.30;;
43311;SDS011;30041;48.300;16.352;2023-05-07T12:41:07;6.07;;;2.90;;
43311;SDS011;30041;48.300;16.352;2023-05-07T12:43:35;4.30;;;3.05;;
43311;SDS011;30041;48.300;16.352;2023-05-07T12:46:01;4.53;;;3.13;;
43311;SDS011;30041;48.300;16.352;2023-05-07T12:48:30;4.40;;;2.92;;
43311;SDS011;30041;48.300;16.352;2023-05-07T12:50:56;15.60;;;4.07;;
43311;SDS011;30041;48.300;16.352;2023-05-07T12:53:23;7.18;;;4.47;;
43311;SDS011;30041;48.300;16.352;2023-05-07T12:55:54;5.18;;;4.47;;
43311;SDS011;30041;48.300;16.352;2023-05-07T12:58:24;6.50;;;4.43;;
43311;SDS011;30041;48.300;16.352;2023-05-07T13:00:51;6.47;;;3.80;;
43311;SDS011;30041;48.300;16.352;2023-05-07T13:05:50;5.10;;;3.70;;
43311;SDS011;30041;48.300;16.352;2023-05-07T13:10:58;4.40;;;3.47;;
43311;SDS011;30041;48.300;16.352;2023-05-07T13:13:25;13.40;;;3.70;;
43311;SDS011;30041;48.300;16.352;2023-05-07T13:15:50;8.10;;;3.20;;
43311;SDS011;30041;48.300;16.352;2023-05-07T13:18:16;6.10;;;3.30;;
43311;SDS011;30041;48.300;16.352;2023-05-07T13:20:41;5.47;;;3.17;;
43311;SDS011;30041;48.300;16.352;2023-05-07T13:23:07;3.70;;;3.08;;
43311;SDS011;30041;48.300;16.352;2023-05-07T13:25:32;4.97;;;3.22;;
43311;SDS011;30041;48.300;16.352;2023-05-07T13:27:58;3.85;;;2.70;;
43311;SDS011;30041;48.300;16.352;2023-05-07T13:30:23;4.22;;;2.80;;
43311;SDS011;30041;48.300;16.352;2023-05-07T13:32:49;4.88;;;3.00;;
43311;SDS011;30041;48.300;16.352;2023-05-07T13:35:15;4.65;;;2.80;;
43311;SDS011;30041;48.300;16.352;2023-05-07T13:37:41;5.15;;;3.20;;
43311;SDS011;30041;48.300;16.352;2023-05-07T13:40:07;4.13;;;2.53;;
43311;SDS011;30041;48.300;16.352;2023-05-07T13:42:33;8.43;;;3.05;;
43311;SDS011;30041;48.300;16.352;2023-05-07T13:44:58;5.18;;;2.78;;
43311;SDS011;30041;48.300;16.352;2023-05-07T13:47:24;3.28;;;2.60;;
43311;SDS011;30041;48.300;16.352;2023-05-07T13:49:49;5.13;;;2.60;;
43311;SDS011;30041;48.300;16.352;2023-05-07T13:52:15;3.03;;;2.35;;
43311;SDS011;30041;48.300;16.352;2023-05-07T13:54:41;3.10;;;2.30;;
43311;SDS011;30041;48.300;16.352;2023-05-07T13:57:07;3.05;;;2.53;;
43311;SDS011;30041;48.300;16.352;2023-05-07T13:59:33;9.88;;;2.72;;
43311;SDS011;30041;48.300;16.352;2023-05-07T14:01:58;5.35;;;2.53;;
43311;SDS011;30041;48.300;16.352;2023-05-07T14:04:24;3.13;;;2.53;;
43311;SDS011;30041;48.300;16.352;2023-05-07T14:06:49;3.40;;;2.60;;
43311;SDS011;30041;48.300;16.352;2023-05-07T14:09:15;4.15;;;2.40;;
43311;SDS011;30041;48.300;16.352;2023-05-07T14:11:41;3.63;;;2.40;;
43311;SDS011;30041;48.300;16.352;2023-05-07T14:14:06;5.25;;;2.35;;
43311;SDS011;30041;48.300;16.352;2023-05-07T14:16:32;2.95;;;2.47;;
43311;SDS011;30041;48.300;16.352;2023-05-07T14:18:57;2.78;;;2.47;;
43311;SDS011;30041;48.300;16.352;2023-05-07T14:21:22;5.15;;;2.47;;
43311;SDS011;30041;48.300;16.352;2023-05-07T14:23:48;4.28;;;2.55;;
43311;SDS011;30041;48.300;16.352;2023-05-07T14:26:13;6.97;;;2.67;;
43311;SDS011;30041;48.300;16.352;2023-05-07T14:28:39;4.25;;;2.53;;
43311;SDS011;30041;48.300;16.352;2023-05-07T14:31:05;5.85;;;2.50;;
43311;SDS011;30041;48.300;16.352;2023-05-07T14:33:30;5.72;;;2.90;;
43311;SDS011;30041;48.300;16.352;2023-05-07T14:35:56;4.45;;;2.47;;
43311;SDS011;30041;48.300;16.352;2023-05-07T14:38:21;4.75;;;2.35;;
43311;SDS011;30041;48.300;16.352;2023-05-07T14:40:46;5.43;;;2.60;;
43311;SDS011;30041;48.300;16.352;2023-05-07T14:43:12;5.18;;;2.85;;
43311;SDS011;30041;48.300;16.352;2023-05-07T14:45:37;4.57;;;2.55;;
43311;SDS011;30041;48.300;16.352;2023-05-07T14:48:03;5.95;;;2.70;;